sensor_id;sensor_type;location;lat;lon;timestamp;pressure;altitude;pressure_sealevel;temperature;humidity
76331;BME280;65148;51.912;15.570;2023-05-15T00:02:01;101139.76;;;14.46;74.90
76331;BME280;65148;51.912;15.570;2023-05-15T00:17:02;101121.00;;;14.81;77.78
76331;BME280;65148;51.912;15.570;2023-05-15T00:32:03;101106.19;;;14.68;82.96
76331;BME280;65148;51.912;15.570;2023-05-15T00:47:04;101090.53;;;14.41;87.47
76331;BME280;65148;51.912;15.570;2023-05-15T01:02:25;101073.97;;;14.33;92.37
76331;BME280;65148;51.912;15.570;2023-05-15T01:17:26;101052.87;;;14.33;94.15
76331;BME280;65148;51.912;15.570;2023-05-15T01:48:06;101039.33;;;13.96;100.00
76331;BME280;65148;51.912;15.570;2023-05-15T02:03:09;101032.66;;;14.02;100.00
76331;BME280;65148;51.912;15.570;2023-05-15T02:18:10;101019.06;;;13.97;100.00
76331;BME280;65148;51.912;15.570;2023-05-15T02:48:40;100954.06;;;13.75;100.00
76331;BME280;65148;51.912;15.570;2023-05-15T03:03:41;100924.79;;;13.89;100.00
76331;BME280;65148;51.912;15.570;2023-05-15T03:18:42;100897.55;;;13.84;100.00
76331;BME280;65148;51.912;15.570;2023-05-15T03:33:43;100881.91;;;13.84;100.00
76331;BME280;65148;51.912;15.570;2023-05-15T03:49:03;100865.30;;;13.81;100.00
76331;BME280;65148;51.912;15.570;2023-05-15T04:04:05;100851.10;;;13.79;100.00
76331;BME280;65148;51.912;15.570;2023-05-15T04:19:06;100827.60;;;13.78;100.00
76331;BME280;65148;51.912;15.570;2023-05-15T04:34:07;100818.38;;;13.74;100.00
76331;BME280;65148;51.912;15.570;2023-05-15T04:49:28;100807.85;;;13.67;98.71
76331;BME280;65148;51.912;15.570;2023-05-15T05:04:29;100787.29;;;13.70;98.38
76331;BME280;65148;51.912;15.570;2023-05-15T05:19:36;100782.61;;;13.84;100.00
76331;BME280;65148;51.912;15.570;2023-05-15T05:50:18;100804.31;;;14.52;100.00
76331;BME280;65148;51.912;15.570;2023-05-15T06:05:19;100789.48;;;14.53;100.00
76331;BME280;65148;51.912;15.570;2023-05-15T06:20:24;100760.31;;;14.49;100.00
76331;BME280;65148;51.912;15.570;2023-05-15T06:35:25;100739.74;;;14.38;100.00
76331;BME280;65148;51.912;15.570;2023-05-15T06:50:45;100722.66;;;14.18;100.00
76331;BME280;65148;51.912;15.570;2023-05-15T07:05:47;100701.97;;;14.48;100.00
76331;BME280;65148;51.912;15.570;2023-05-15T07:20:48;100685.04;;;14.46;100.00
76331;BME280;65148;51.912;15.570;2023-05-15T07:35:52;100674.59;;;14.48;100.00
76331;BME280;65148;51.912;15.570;2023-05-15T07:51:11;100659.75;;;14.49;100.00
76331;BME280;65148;51.912;15.570;2023-05-15T08:06:12;100651.02;;;14.78;100.00
76331;BME280;65148;51.912;15.570;2023-05-15T08:21:13;100642.49;;;14.80;100.00
76331;BME280;65148;51.912;15.570;2023-05-15T08:36:15;100623.77;;;14.82;100.00
76331;BME280;65148;51.912;15.570;2023-05-15T08:51:37;100619.05;;;14.65;100.00
76331;BME280;65148;51.912;15.570;2023-05-15T09:06:43;100611.38;;;14.84;100.00
76331;BME280;65148;51.912;15.570;2023-05-15T09:40:45;100596.77;;;15.15;100.00
76331;BME280;65148;51.912;15.570;2023-05-15T09:55:47;100604.03;;;15.11;100.00
76331;BME280;65148;51.912;15.570;2023-05-15T10:10:49;100599.30;;;14.94;100.00
76331;BME280;65148;51.912;15.570;2023-05-15T10:41:22;100583.20;;;14.92;100.00
76331;BME280;65148;51.912;15.570;2023-05-15T10:56:31;100569.63;;;14.79;100.00
76331;BME280;65148;51.912;15.570;2023-05-15T11:11:57;100568.59;;;14.57;100.00
76331;BME280;65148;51.912;15.570;2023-05-15T11:27:03;100551.18;;;14.62;100.00
76331;BME280;65148;51.912;15.570;2023-05-15T11:42:11;100544.84;;;14.92;100.00
76331;BME280;65148;51.912;15.570;2023-05-15T11:57:31;100539.37;;;15.44;100.00
76331;BME280;65148;51.912;15.570;2023-05-15T12:12:35;100534.33;;;15.81;100.00
76331;BME280;65148;51.912;15.570;2023-05-15T12:27:39;100540.30;;;15.83;100.00
76331;BME280;65148;51.912;15.570;2023-05-15T12:42:42;100537.76;;;15.34;100.00
76331;BME280;65148;51.912;15.570;2023-05-15T12:57:57;100534.86;;;15.22;100.00
76331;BME280;65148;51.912;15.570;2023-05-15T13:13:01;100522.92;;;15.36;100.00
76331;BME280;65148;51.912;15.570;2023-05-15T13:28:04;100530.98;;;15.23;100.00
76331;BME280;65148;51.912;15.570;2023-05-15T13:43:07;100518.54;;;14.91;100.00
76331;BME280;65148;51.912;15.570;2023-05-15T13:58:21;100520.94;;;14.93;100.00
76331;BME280;65148;51.912;15.570;2023-05-15T14:13:27;100516.57;;;14.83;100.00
76331;BME280;65148;51.912;15.570;2023-05-15T14:28:31;100506.91;;;14.94;100.00
76331;BME280;65148;51.912;15.570;2023-05-15T14:43:32;100516.89;;;14.82;100.00
76331;BME280;65148;51.912;15.570;2023-05-15T14:58:49;100513.02;;;14.83;100.00
76331;BME280;65148;51.912;15.570;2023-05-15T15:13:53;100520.24;;;14.61;100.00
76331;BME280;65148;51.912;15.570;2023-05-15T15:28:54;100525.18;;;14.42;100.00
76331;BME280;65148;51.912;15.570;2023-05-15T15:59:59;100517.07;;;14.94;100.00
76331;BME280;65148;51.912;15.570;2023-05-15T16:48:27;100536.95;;;15.60;100.00
76331;BME280;65148;51.912;15.570;2023-05-15T17:24:17;100535.97;;;15.39;100.00
76331;BME280;65148;51.912;15.570;2023-05-15T17:39:18;100548.87;;;15.38;100.00
76331;BME280;65148;51.912;15.570;2023-05-15T17:54:19;100545.02;;;15.22;100.00
76331;BME280;65148;51.912;15.570;2023-05-15T18:09:41;100559.30;;;14.84;100.00
76331;BME280;65148;51.912;15.570;2023-05-15T18:24:42;100564.14;;;14.79;100.00
76331;BME280;65148;51.912;15.570;2023-05-15T18:39:43;100577.25;;;14.51;100.00
76331;BME280;65148;51.912;15.570;2023-05-15T18:54:44;100599.84;;;14.25;100.00
76331;BME280;65148;51.912;15.570;2023-05-15T19:10:06;100613.73;;;13.84;100.00
76331;BME280;65148;51.912;15.570;2023-05-15T19:25:09;100628.16;;;13.76;100.00
76331;BME280;65148;51.912;15.570;2023-05-15T19:40:11;100632.43;;;13.46;100.00
76331;BME280;65148;51.912;15.570;2023-05-15T19:55:13;100641.48;;;13.20;100.00
76331;BME280;65148;51.912;15.570;2023-05-15T20:10:29;100654.95;;;13.02;100.00
76331;BME280;65148;51.912;15.570;2023-05-15T20:25:30;100656.05;;;13.01;100.00
76331;BME280;65148;51.912;15.570;2023-05-15T20:40:31;100655.56;;;12.86;100.00
76331;BME280;65148;51.912;15.570;2023-05-15T20:55:32;100663.16;;;12.75;100.00
76331;BME280;65148;51.912;15.570;2023-05-15T21:10:53;100667.87;;;12.42;100.00
76331;BME280;65148;51.912;15.570;2023-05-15T21:25:55;100676.72;;;12.34;100.00
76331;BME280;65148;51.912;15.570;2023-05-15T21:40:56;100673.68;;;12.22;100.00
76331;BME280;65148;51.912;15.570;2023-05-15T21:55:58;100672.98;;;11.97;100.00
76331;BME280;65148;51.912;15.570;2023-05-15T22:11:18;100677.85;;;11.82;100.00
76331;BME280;65148;51.912;15.570;2023-05-15T22:26:19;100681.95;;;11.60;100.00
76331;BME280;65148;51.912;15.570;2023-05-15T22:41:21;100694.05;;;11.73;100.00
76331;BME280;65148;51.912;15.570;2023-05-15T22:56:22;100703.34;;;11.53;100.00
76331;BME280;65148;51.912;15.570;2023-05-15T23:11:42;100714.22;;;11.34;100.00
76331;BME280;65148;51.912;15.570;2023-05-15T23:26:43;100715.13;;;11.25;100.00
76331;BME280;65148;51.912;15.570;2023-05-15T23:41:46;100734.11;;;11.35;100.00
76331;BME280;65148;51.912;15.570;2023-05-15T23:56:47;100724.02;;;11.78;100.00
